»·PEaware :: N656FP KPSP-KSBD

N656FP :: KPSP-KSBD

FLIGHT INFORMATION

Flight Status: Arrived
Operator: Privately registered:
United States
More flights under this callsign
Pilot: Corey M. (20520)
Aircraft: ECLIPSE 500
(EA50)
More flights by this aircraft type
Origin: KPSP Palm Springs Intl
United States
Destination: KSBD San Bernardino Intl
United States
More flights between these airports :: More routes between these airports
Route: +CATH1 PSP V388 PDZ
File this flight plan on PilotEdge
Remarks: PSPP3
Altitude:
(Current/Filed)
12,000ft
Speed:
(Current/Filed)
240kts
Departed: 24-Sep-18 07:23 PM
Arrived: 24-Sep-18 07:58 PM
Distance/Time
Traveled:
40nm/0:35
Distance/Time
To Go:
Arrived

Flight Plot

Page will automatically refresh every two minutes.


Map Options




Map Legend


Flown Route
Filed Route
Departure Airport
Arrival Airport
Navaid (VOR, NDB)
Fix

Horizontal Profiles

Position Reports

Time Latitude Longitude Heading Altitude Ground
Speed
24-Sep-18 19:07 33.822834 -116.497126 53 394ft 0kts
24-Sep-18 19:08 33.822834 -116.497126 53 394ft 0kts
24-Sep-18 19:09 33.822834 -116.497126 53 394ft 0kts
24-Sep-18 19:10 33.822834 -116.497126 53 394ft 0kts
24-Sep-18 19:11 33.822834 -116.497126 53 394ft 0kts
24-Sep-18 19:12 33.822834 -116.497126 53 394ft 0kts
24-Sep-18 19:13 33.822834 -116.497126 53 394ft 0kts
24-Sep-18 19:14 33.822834 -116.497126 53 394ft 0kts
24-Sep-18 19:15 33.822834 -116.497126 53 394ft 0kts
24-Sep-18 19:16 33.822834 -116.497126 53 394ft 0kts
24-Sep-18 19:17 33.822834 -116.497126 53 394ft 0kts
24-Sep-18 19:18 33.822834 -116.497126 53 394ft 0kts
24-Sep-18 19:19 33.822833 -116.497086 112 394ft 1kts
24-Sep-18 19:20 33.822005 -116.496783 141 394ft 4kts
24-Sep-18 19:21 33.819988 -116.495861 223 388ft 13kts
24-Sep-18 19:22 33.819221 -116.497100 233 391ft 0kts
24-Sep-18 19:23 33.819221 -116.497100 233 391ft 0kts
24-Sep-18 19:24 33.819145 -116.497229 236 391ft 5kts
24-Sep-18 19:25 33.828555 -116.506500 324 617ft 108kts
24-Sep-18 19:26 33.858343 -116.533626 321 1756ft 157kts
24-Sep-18 19:27 33.894079 -116.568440 321 2814ft 171kts
24-Sep-18 19:28 33.928266 -116.561752 71 3589ft 166kts
24-Sep-18 19:29 33.906998 -116.508003 114 4639ft 192kts
24-Sep-18 19:30 33.881623 -116.450423 116 5368ft 178kts
24-Sep-18 19:31 33.862511 -116.409781 109 6767ft 106kts
24-Sep-18 19:32 33.849833 -116.380220 111 7726ft 119kts
24-Sep-18 19:33 33.831659 -116.337920 115 8421ft 181kts
24-Sep-18 19:34 33.792451 -116.289331 128 9423ft 229kts
24-Sep-18 19:35 33.824856 -116.244826 341 10471ft 263kts
24-Sep-18 19:36 33.864832 -116.308854 271 11494ft 277kts
24-Sep-18 19:37 33.867615 -116.403149 271 11999ft 297kts
24-Sep-18 19:38 33.888617 -116.502079 286 12001ft 318kts
24-Sep-18 19:39 33.914164 -116.603280 287 12001ft 327kts
24-Sep-18 19:40 33.935745 -116.688698 286 12017ft 297kts
24-Sep-18 19:41 33.946226 -116.775642 267 12070ft 283kts
24-Sep-18 19:42 33.943849 -116.871413 267 12123ft 293kts
24-Sep-18 19:43 33.940710 -116.969652 266 12137ft 297kts
24-Sep-18 19:44 33.937222 -117.068283 267 12136ft 295kts
24-Sep-18 19:45 33.933635 -117.165876 267 12135ft 294kts
24-Sep-18 19:46 33.929515 -117.262916 267 12132ft 294kts
24-Sep-18 19:47 33.925342 -117.359413 267 12127ft 291kts
24-Sep-18 19:48 33.921743 -117.447771 267 11339ft 253kts
24-Sep-18 19:49 33.940336 -117.517931 347 10358ft 246kts
24-Sep-18 19:50 33.979041 -117.464366 71 9398ft 245kts
24-Sep-18 19:51 33.989258 -117.387060 81 8423ft 235kts
24-Sep-18 19:52 33.998119 -117.315231 81 7485ft 230kts
24-Sep-18 19:53 34.007308 -117.240849 81 6503ft 228kts
24-Sep-18 19:54 34.033710 -117.176626 51 5390ft 209kts
24-Sep-18 19:55 34.061234 -117.133822 51 4195ft 181kts
24-Sep-18 19:56 34.099642 -117.134930 312 2732ft 102kts
24-Sep-18 19:57 34.115367 -117.157432 275 2239ft 83kts
24-Sep-18 19:58 34.111067 -117.182099 246 1910ft 100kts
24-Sep-18 19:59 34.099486 -117.220720 248 1157ft 97kts
24-Sep-18 20:00 34.095564 -117.233902 249 1119ft 25kts
24-Sep-18 20:01 34.095869 -117.236076 330 1113ft 0kts
24-Sep-18 20:02 34.095970 -117.236146 330 1113ft 6kts
24-Sep-18 20:03 34.101784 -117.240161 330 1108ft 30kts
24-Sep-18 20:04 34.102850 -117.241123 214 1106ft 7kts
24-Sep-18 20:05 34.100283 -117.242060 192 1101ft 16kts
24-Sep-18 20:06 34.100040 -117.243372 235 1099ft 0kts
24-Sep-18 20:07 34.100040 -117.243372 235 1099ft 0kts
24-Sep-18 20:08 34.100040 -117.243372 235 1099ft 0kts
24-Sep-18 20:09 34.100040 -117.243372 235 1099ft 0kts
24-Sep-18 20:10 34.100040 -117.243372 235 1099ft 0kts
24-Sep-18 20:11 34.100040 -117.243372 235 1099ft 0kts
24-Sep-18 20:12 34.100040 -117.243372 235 1099ft 0kts
24-Sep-18 20:13 34.100040 -117.243372 235 1099ft 0kts
24-Sep-18 20:14 34.100040 -117.243372 235 1099ft 0kts

Navigation Log

Ident Type
1. KPSP Airport
2. PSP Navaid
3. DEWAY Fix
4. ACINS Fix
5. LENHO Fix
6. KNDAL Fix
7. PDZ Navaid
8. KSBD Airport